createdAt,value
2022-10-11T00:00:35.769Z,80.20
2022-10-11T00:01:36.177Z,80.20
2022-10-11T00:02:35.829Z,80.20
2022-10-11T00:03:36.100Z,80.30
2022-10-11T00:04:35.996Z,80.41
2022-10-11T00:05:42.010Z,80.41
2022-10-11T00:06:35.937Z,80.61
2022-10-11T00:07:35.730Z,80.75
2022-10-11T00:08:35.848Z,80.85
2022-10-11T00:09:36.713Z,80.96
2022-10-11T00:10:42.196Z,80.85
2022-10-11T00:11:37.023Z,80.85
2022-10-11T00:12:41.889Z,80.85
2022-10-11T00:13:35.655Z,80.65
2022-10-11T00:14:35.692Z,80.75
2022-10-11T00:15:42.801Z,80.65
2022-10-11T00:16:35.946Z,80.85
2022-10-11T00:17:35.685Z,80.96
2022-10-11T00:18:35.863Z,80.96
2022-10-11T00:19:35.903Z,80.55
2022-10-11T00:20:35.603Z,80.89
2022-10-11T00:21:45.968Z,80.89
2022-10-11T00:22:35.886Z,80.89
2022-10-11T00:23:35.519Z,80.89
2022-10-11T00:24:36.553Z,80.89
2022-10-11T00:25:36.545Z,80.99
2022-10-11T00:26:35.478Z,81.10
2022-10-11T00:27:42.771Z,81.20
2022-10-11T00:28:36.022Z,81.20
2022-10-11T00:29:35.774Z,81.20
2022-10-11T00:30:35.541Z,81.20
2022-10-11T00:31:37.326Z,81.30
2022-10-11T00:32:39.397Z,81.34
2022-10-11T00:33:41.741Z,81.44
2022-10-11T00:34:35.689Z,81.54
2022-10-11T00:35:36.381Z,81.54
2022-10-11T00:36:36.648Z,81.65
2022-10-11T00:37:36.342Z,81.74
2022-10-11T00:38:41.856Z,81.65
2022-10-11T00:39:35.302Z,81.74
2022-10-11T00:40:35.539Z,81.74
2022-10-11T00:41:35.300Z,81.85
2022-10-11T00:42:35.298Z,81.85
2022-10-11T00:43:42.739Z,81.95
2022-10-11T00:44:35.251Z,81.85
2022-10-11T00:45:35.230Z,81.58
2022-10-11T00:46:36.879Z,81.68
2022-10-11T00:47:35.504Z,81.79
2022-10-11T00:48:36.301Z,81.79
2022-10-11T00:49:42.057Z,81.79
2022-10-11T00:50:35.137Z,81.79
2022-10-11T00:51:35.281Z,81.99
2022-10-11T00:52:35.110Z,81.99
2022-10-11T00:53:35.127Z,81.99
2022-10-11T00:54:42.527Z,82.09
2022-10-11T00:55:35.100Z,82.09
2022-10-11T00:56:35.088Z,82.09
2022-10-11T00:57:35.224Z,82.20
2022-10-11T00:58:35.157Z,82.20
2022-10-11T00:59:41.526Z,82.34
2022-10-11T01:00:36.352Z,82.34
2022-10-11T01:01:35.085Z,82.34
2022-10-11T01:02:35.491Z,82.34
2022-10-11T01:03:34.996Z,82.43
2022-10-11T01:04:36.196Z,82.54
2022-10-11T01:05:41.629Z,82.54
2022-10-11T01:06:35.001Z,82.64
2022-10-11T01:07:34.961Z,82.75
2022-10-11T01:08:35.142Z,82.84
2022-10-11T01:09:35.489Z,82.95
2022-10-11T01:10:41.808Z,83.05
2022-10-11T01:11:35.986Z,83.15
2022-10-11T01:12:35.014Z,83.15
2022-10-11T01:13:35.151Z,83.25
2022-10-11T01:14:35.347Z,83.36
2022-10-11T01:15:41.471Z,83.36
2022-10-11T01:16:35.062Z,83.39
2022-10-11T01:17:34.978Z,83.56
2022-10-11T01:18:34.963Z,83.60
2022-10-11T01:19:35.951Z,83.70
2022-10-11T01:20:42.074Z,83.70
2022-10-11T01:21:34.717Z,83.81
2022-10-11T01:22:35.110Z,83.91
2022-10-11T01:23:34.769Z,83.91
2022-10-11T01:24:34.780Z,84.01
2022-10-11T01:25:34.633Z,84.11
2022-10-11T01:26:41.212Z,84.31
2022-10-11T01:27:34.806Z,84.31
2022-10-11T01:28:34.899Z,84.31
2022-10-11T01:29:34.622Z,84.31
2022-10-11T01:30:34.625Z,84.42
2022-10-11T01:31:34.777Z,84.63
2022-10-11T01:32:40.972Z,84.72
2022-10-11T01:33:34.571Z,84.93
2022-10-11T01:34:38.763Z,85.03
2022-10-11T01:35:34.774Z,85.03
2022-10-11T01:36:35.943Z,85.14
2022-10-11T01:37:41.415Z,85.38
2022-10-11T01:38:35.484Z,85.38
2022-10-11T01:39:34.487Z,85.38
2022-10-11T01:40:34.559Z,85.38
2022-10-11T01:41:34.806Z,85.48
2022-10-11T01:42:41.610Z,85.58
2022-10-11T01:43:34.344Z,85.58
2022-10-11T01:44:34.558Z,85.58
2022-10-11T01:45:34.807Z,85.69
2022-10-11T01:46:34.398Z,85.69
2022-10-11T01:47:40.780Z,85.69
2022-10-11T01:48:34.435Z,85.79
2022-10-11T01:49:34.353Z,85.99
2022-10-11T01:50:34.355Z,85.99
2022-10-11T01:51:34.668Z,86.10
2022-10-11T01:52:35.845Z,86.10
2022-10-11T01:53:40.626Z,86.20
2022-10-11T01:55:04.085Z,86.30
2022-10-11T01:55:42.008Z,86.30
2022-10-11T01:56:34.780Z,86.51
2022-10-11T01:57:34.578Z,86.65
2022-10-11T01:58:35.226Z,86.65
2022-10-11T01:59:41.516Z,86.75
2022-10-11T02:00:34.274Z,86.85
2022-10-11T02:01:34.574Z,86.85
2022-10-11T02:02:34.532Z,86.96
2022-10-11T02:03:35.317Z,87.16
2022-10-11T02:04:34.186Z,87.37
2022-10-11T02:05:41.585Z,87.37
2022-10-11T02:06:34.511Z,87.37
2022-10-11T02:07:34.504Z,87.47
2022-10-11T02:08:34.115Z,87.57
2022-10-11T02:09:34.187Z,87.67
2022-10-11T02:10:40.777Z,87.77
2022-10-11T02:11:34.168Z,87.88
2022-10-11T02:12:34.457Z,87.88
2022-10-11T02:13:34.264Z,87.88
2022-10-11T02:14:34.094Z,87.88
2022-10-11T02:15:40.744Z,87.98
2022-10-11T02:16:38.562Z,88.08
2022-10-11T02:17:33.968Z,88.08
2022-10-11T02:18:33.986Z,88.08
2022-10-11T02:19:40.278Z,88.08
2022-10-11T02:20:40.552Z,88.12
2022-10-11T02:21:33.987Z,88.12
2022-10-11T02:22:33.902Z,88.02
2022-10-11T02:23:33.939Z,88.02
2022-10-11T02:24:34.199Z,88.02
2022-10-11T02:25:40.800Z,88.02
2022-10-11T02:26:33.931Z,88.02
2022-10-11T02:27:33.954Z,88.02
2022-10-11T02:28:34.050Z,87.92
2022-10-11T02:29:33.851Z,87.92
2022-10-11T02:30:33.893Z,87.92
2022-10-11T02:31:40.238Z,87.92
2022-10-11T02:32:33.830Z,88.02
2022-10-11T02:33:35.051Z,87.92
2022-10-11T02:34:36.333Z,88.02
2022-10-11T02:35:33.835Z,88.02
2022-10-11T02:36:40.202Z,88.02
2022-10-11T02:37:33.800Z,88.12
2022-10-11T02:38:33.755Z,88.12
2022-10-11T02:39:34.705Z,88.27
2022-10-11T02:40:33.896Z,88.27
2022-10-11T02:41:35.033Z,88.37
2022-10-11T02:42:41.181Z,88.37
2022-10-11T02:43:33.984Z,88.37
2022-10-11T02:44:34.936Z,88.47
2022-10-11T02:45:33.701Z,88.47
2022-10-11T02:46:33.708Z,88.57
2022-10-11T02:47:40.993Z,88.57
2022-10-11T02:48:33.595Z,88.68
2022-10-11T02:49:33.681Z,88.57
2022-10-11T02:50:33.640Z,88.68
2022-10-11T02:51:33.657Z,88.68
2022-10-11T02:52:33.677Z,88.78
2022-10-11T02:53:40.203Z,88.78
2022-10-11T02:54:34.709Z,88.88
2022-10-11T02:55:33.761Z,88.92
2022-10-11T02:56:33.493Z,89.03
2022-10-11T02:57:34.522Z,89.13
2022-10-11T02:58:33.495Z,89.13
2022-10-11T02:59:39.842Z,89.23
2022-10-11T03:00:33.502Z,89.33
2022-10-11T03:01:33.523Z,89.33
2022-10-11T03:02:33.420Z,89.43
2022-10-11T03:03:33.355Z,89.54
2022-10-11T03:04:39.694Z,89.54
2022-10-11T03:05:33.496Z,89.54
2022-10-11T03:06:33.308Z,89.54
2022-10-11T03:07:33.319Z,89.64
2022-10-11T03:08:33.462Z,89.64
2022-10-11T03:09:40.638Z,89.64
2022-10-11T03:10:33.322Z,89.75
2022-10-11T03:11:33.329Z,89.75
2022-10-11T03:12:34.319Z,89.75
2022-10-11T03:13:36.207Z,89.84
2022-10-11T03:14:39.853Z,89.84
2022-10-11T03:15:33.262Z,89.84
2022-10-11T03:16:33.189Z,89.75
2022-10-11T03:17:37.301Z,89.84
2022-10-11T03:18:33.402Z,89.95
2022-10-11T03:19:40.159Z,89.95
2022-10-11T03:20:34.360Z,90.16
2022-10-11T03:21:33.759Z,90.26
2022-10-11T03:22:34.035Z,90.16
2022-10-11T03:23:33.292Z,90.26
2022-10-11T03:24:34.207Z,90.56
2022-10-11T03:25:39.445Z,90.56
2022-10-11T03:26:33.154Z,90.46
2022-10-11T03:27:33.457Z,90.56
2022-10-11T03:28:34.138Z,90.87
2022-10-11T03:29:33.181Z,90.97
2022-10-11T03:30:40.545Z,90.87
2022-10-11T03:31:34.420Z,91.08
2022-10-11T03:32:33.150Z,90.97
2022-10-11T03:33:33.082Z,90.87
2022-10-11T03:34:34.077Z,91.18
2022-10-11T03:35:33.051Z,91.22
2022-10-11T03:36:39.291Z,91.42
2022-10-11T03:37:33.460Z,91.42
2022-10-11T03:38:32.951Z,91.42
2022-10-11T03:39:32.986Z,91.53
2022-10-11T03:40:36.671Z,91.53
2022-10-11T03:41:39.865Z,91.53
2022-10-11T03:42:32.950Z,91.63
2022-10-11T03:43:35.110Z,91.84
2022-10-11T03:44:32.929Z,91.84
2022-10-11T03:45:32.916Z,91.94
2022-10-11T03:46:32.886Z,92.04
2022-10-11T03:47:39.210Z,92.04
2022-10-11T03:48:32.848Z,92.14
2022-10-11T03:49:33.913Z,92.25
2022-10-11T03:50:32.838Z,92.25
2022-10-11T03:51:32.948Z,92.35
2022-10-11T03:52:33.085Z,92.35
2022-10-11T03:53:39.077Z,92.55
2022-10-11T03:54:32.699Z,92.55
2022-10-11T03:55:33.763Z,92.55
2022-10-11T03:56:32.776Z,92.76
2022-10-11T03:57:32.756Z,92.86
2022-10-11T03:58:39.032Z,92.86
2022-10-11T03:59:32.684Z,92.86
2022-10-11T04:00:34.018Z,92.86
2022-10-11T04:01:36.724Z,92.86
2022-10-11T04:02:35.795Z,92.97
2022-10-11T04:03:34.152Z,92.86
2022-10-11T04:04:39.205Z,92.97
2022-10-11T04:05:33.762Z,92.97
2022-10-11T04:06:34.711Z,93.12
2022-10-11T04:07:32.659Z,93.07
2022-10-11T04:08:32.537Z,93.12
2022-10-11T04:09:39.299Z,93.12
2022-10-11T04:10:32.779Z,93.12
2022-10-11T04:11:32.818Z,93.21
2022-10-11T04:12:32.548Z,93.21
2022-10-11T04:13:36.204Z,93.21
2022-10-11T04:14:32.635Z,93.21
2022-10-11T04:15:39.030Z,93.21
2022-10-11T04:16:32.554Z,93.21
2022-10-11T04:17:32.426Z,93.32
2022-10-11T04:18:32.687Z,93.32
2022-10-11T04:19:33.381Z,93.42
2022-10-11T04:20:32.667Z,93.42
2022-10-11T04:21:38.988Z,93.32
2022-10-11T04:22:32.428Z,93.42
2022-10-11T04:23:32.363Z,93.42
2022-10-11T04:24:32.332Z,93.52
2022-10-11T04:25:33.288Z,93.52
2022-10-11T04:26:39.028Z,93.63
2022-10-11T04:27:32.363Z,93.63
2022-10-11T04:28:32.302Z,93.63
2022-10-11T04:29:32.890Z,93.73
2022-10-11T04:30:32.229Z,93.83
2022-10-11T04:31:39.044Z,93.93
2022-10-11T04:32:32.989Z,93.93
2022-10-11T04:33:32.278Z,94.04
2022-10-11T04:34:32.343Z,94.04
2022-10-11T04:35:32.198Z,94.04
2022-10-11T04:36:38.817Z,94.14
2022-10-11T04:37:32.176Z,94.04
2022-10-11T04:38:32.156Z,94.04
2022-10-11T04:39:32.766Z,94.14
2022-10-11T04:40:32.538Z,94.24
2022-10-11T04:41:38.606Z,94.24
2022-10-11T04:42:33.066Z,94.34
2022-10-11T04:43:32.115Z,94.24
2022-10-11T04:44:36.166Z,94.34
2022-10-11T04:45:32.131Z,94.34
2022-10-11T04:46:33.159Z,94.39
2022-10-11T04:47:38.374Z,94.39
2022-10-11T04:48:32.329Z,94.39
2022-10-11T04:49:33.146Z,94.49
2022-10-11T04:50:32.408Z,94.49
2022-10-11T04:51:33.468Z,94.59
2022-10-11T04:52:39.244Z,94.59
2022-10-11T04:53:38.363Z,94.59
2022-10-11T04:54:32.044Z,94.59
2022-10-11T04:55:33.113Z,94.59
2022-10-11T04:56:32.046Z,94.59
2022-10-11T04:57:33.422Z,94.70
2022-10-11T04:58:38.396Z,94.59
2022-10-11T04:59:32.998Z,94.70
2022-10-11T05:00:31.887Z,94.70
2022-10-11T05:01:33.072Z,94.70
2022-10-11T05:02:33.615Z,94.70
2022-10-11T05:03:32.820Z,94.80
2022-10-11T05:04:39.956Z,94.80
2022-10-11T05:05:31.913Z,94.90
2022-10-11T05:06:32.034Z,94.80
2022-10-11T05:07:32.882Z,94.80
2022-10-11T05:08:32.133Z,94.90
2022-10-11T05:09:31.867Z,95.01
2022-10-11T05:10:38.177Z,94.90
2022-10-11T05:11:32.049Z,94.90
2022-10-11T05:12:32.302Z,94.90
2022-10-11T05:13:32.015Z,95.01
2022-10-11T05:14:32.201Z,95.01
2022-10-11T05:15:31.721Z,95.01
2022-10-11T05:16:38.144Z,95.10
2022-10-11T05:17:32.862Z,95.01
2022-10-11T05:18:32.067Z,95.10
2022-10-11T05:19:32.807Z,95.10
2022-10-11T05:20:33.161Z,95.10
2022-10-11T05:21:38.263Z,95.10
2022-10-11T05:22:31.604Z,95.10
2022-10-11T05:23:31.579Z,95.10
2022-10-11T05:24:31.756Z,95.10
2022-10-11T05:25:31.561Z,95.10
2022-10-11T05:26:42.243Z,95.10
2022-10-11T05:27:32.862Z,95.10
2022-10-11T05:28:31.617Z,95.10
2022-10-11T05:29:32.315Z,95.21
2022-10-11T05:30:32.784Z,95.21
2022-10-11T05:31:32.562Z,95.21
2022-10-11T05:32:38.062Z,95.21
2022-10-11T05:33:31.464Z,95.21
2022-10-11T05:34:31.666Z,95.31
2022-10-11T05:35:31.452Z,95.31
2022-10-11T05:36:32.511Z,95.31
2022-10-11T05:37:31.769Z,95.31
2022-10-11T05:38:37.694Z,95.21
2022-10-11T05:39:35.546Z,95.31
2022-10-11T05:40:31.564Z,95.31
2022-10-11T05:41:31.392Z,95.31
2022-10-11T05:42:31.379Z,95.31
2022-10-11T05:43:31.361Z,95.31
2022-10-11T05:44:38.039Z,95.31
2022-10-11T05:45:31.350Z,95.31
2022-10-11T05:46:32.449Z,95.31
2022-10-11T05:47:31.613Z,95.31
2022-10-11T05:48:32.328Z,95.31
2022-10-11T05:49:32.140Z,95.31
2022-10-11T05:50:37.577Z,95.31
2022-10-11T05:51:31.340Z,95.21
2022-10-11T05:52:31.469Z,95.21
2022-10-11T05:53:31.332Z,95.21
2022-10-11T05:54:31.568Z,95.21
2022-10-11T05:55:31.305Z,95.21
2022-10-11T05:56:41.350Z,95.21
2022-10-11T05:57:31.174Z,95.21
2022-10-11T05:58:31.209Z,95.21
2022-10-11T05:59:31.218Z,95.21
2022-10-11T06:00:31.087Z,95.10
2022-10-11T06:01:40.429Z,95.21
2022-10-11T06:02:31.101Z,95.21
2022-10-11T06:03:31.158Z,95.10
2022-10-11T06:04:31.358Z,95.10
2022-10-11T06:05:31.127Z,95.10
2022-10-11T06:06:37.404Z,95.10
2022-10-11T06:07:31.059Z,95.10
2022-10-11T06:08:31.023Z,95.10
2022-10-11T06:09:30.970Z,95.10
2022-10-11T06:10:31.015Z,95.10
2022-10-11T06:11:37.744Z,95.21
2022-10-11T06:12:31.016Z,95.10
2022-10-11T06:13:33.052Z,95.10
2022-10-11T06:14:30.948Z,95.10
2022-10-11T06:15:35.088Z,95.10
2022-10-11T06:16:38.289Z,95.10
2022-10-11T06:17:30.929Z,95.10
2022-10-11T06:18:30.914Z,95.01
2022-10-11T06:19:32.461Z,95.01
2022-10-11T06:20:30.918Z,95.01
2022-10-11T06:21:33.808Z,95.01
2022-10-11T06:22:37.239Z,95.01
2022-10-11T06:23:31.358Z,94.90
2022-10-11T06:24:31.175Z,94.90
2022-10-11T06:25:30.871Z,94.90
2022-10-11T06:26:31.139Z,94.90
2022-10-11T06:27:30.948Z,94.90
2022-10-11T06:28:37.260Z,94.80
2022-10-11T06:29:32.529Z,94.80
2022-10-11T06:30:30.846Z,94.76
2022-10-11T06:31:30.761Z,94.85
2022-10-11T06:32:30.821Z,94.76
2022-10-11T06:33:38.399Z,94.65
2022-10-11T06:34:30.705Z,94.55
2022-10-11T06:35:31.092Z,94.45
2022-10-11T06:36:31.495Z,94.45
2022-10-11T06:37:30.759Z,94.45
2022-10-11T06:38:44.730Z,94.45
2022-10-11T06:39:32.153Z,94.45
2022-10-11T06:40:31.690Z,94.24
2022-10-11T06:41:30.903Z,94.24
2022-10-11T06:42:30.689Z,94.24
2022-10-11T06:43:37.896Z,94.14
2022-10-11T06:44:30.591Z,94.14
2022-10-11T06:45:30.699Z,94.14
2022-10-11T06:46:31.501Z,94.14
2022-10-11T06:47:31.111Z,94.14
2022-10-11T06:48:39.480Z,94.14
2022-10-11T06:49:30.795Z,93.93
2022-10-11T06:50:57.896Z,93.93
2022-10-11T06:51:31.755Z,93.83
2022-10-11T06:52:30.863Z,93.83
2022-10-11T06:53:36.781Z,93.59
2022-10-11T06:54:31.214Z,93.59
2022-10-11T06:55:31.433Z,93.48
2022-10-11T06:56:31.499Z,93.48
2022-10-11T06:57:30.588Z,93.48
2022-10-11T06:58:36.782Z,93.38
2022-10-11T06:59:30.449Z,93.27
2022-10-11T07:00:31.385Z,93.17
2022-10-11T07:01:30.413Z,93.07
2022-10-11T07:02:30.293Z,93.07
2022-10-11T07:03:37.208Z,93.07
2022-10-11T07:04:31.116Z,93.07
2022-10-11T07:05:31.505Z,92.97
2022-10-11T07:06:31.065Z,92.97
2022-10-11T07:07:30.907Z,92.82
2022-10-11T07:08:30.272Z,92.72
2022-10-11T07:09:37.319Z,92.51
2022-10-11T07:10:30.449Z,92.51
2022-10-11T07:11:30.182Z,92.51
2022-10-11T07:12:30.288Z,92.41
2022-10-11T07:13:31.009Z,92.41
2022-10-11T07:14:30.298Z,92.21
2022-10-11T07:15:36.805Z,92.31
2022-10-11T07:16:30.212Z,92.10
2022-10-11T07:17:30.577Z,92.10
2022-10-11T07:18:30.308Z,92.00
2022-10-11T07:19:31.237Z,91.69
2022-10-11T07:20:30.435Z,91.80
2022-10-11T07:21:36.457Z,91.90
2022-10-11T07:22:30.059Z,91.59
2022-10-11T07:23:30.156Z,91.80
2022-10-11T07:24:30.059Z,91.69
2022-10-11T07:25:30.258Z,91.55
2022-10-11T07:26:35.299Z,91.35
2022-10-11T07:27:39.125Z,91.35
2022-10-11T07:28:30.151Z,91.35
2022-10-11T07:29:30.395Z,91.24
2022-10-11T07:30:30.464Z,91.14
2022-10-11T07:31:30.232Z,91.14
2022-10-11T07:32:30.076Z,91.14
2022-10-11T07:33:36.252Z,90.83
2022-10-11T07:34:30.474Z,90.73
2022-10-11T07:35:30.162Z,90.73
2022-10-11T07:36:31.258Z,90.52
2022-10-11T07:37:30.100Z,90.73
2022-10-11T07:38:29.862Z,90.52
2022-10-11T07:39:48.938Z,90.17
2022-10-11T07:40:30.143Z,90.28
2022-10-11T07:41:29.957Z,90.17
2022-10-11T07:42:30.651Z,89.87
2022-10-11T07:43:30.732Z,89.56
2022-10-11T07:44:36.286Z,89.56
2022-10-11T07:45:29.937Z,89.56
2022-10-11T07:46:30.116Z,89.66
2022-10-11T07:47:50.787Z,89.15
2022-10-11T07:48:29.806Z,89.36
2022-10-11T07:49:30.054Z,89.04
2022-10-11T07:50:36.002Z,88.84
2022-10-11T07:51:29.970Z,89.15
2022-10-11T07:52:30.075Z,89.11
2022-10-11T07:53:30.012Z,88.90
2022-10-11T07:54:34.122Z,88.80
2022-10-11T07:55:36.119Z,88.29
2022-10-11T07:56:30.834Z,87.57
2022-10-11T07:57:29.740Z,87.77
2022-10-11T07:58:29.729Z,87.88
2022-10-11T07:59:29.719Z,87.77
2022-10-11T08:00:33.718Z,87.57
2022-10-11T08:01:40.100Z,87.47
2022-10-11T08:02:29.525Z,87.47
2022-10-11T08:03:29.600Z,87.47
2022-10-11T08:04:30.645Z,87.47
2022-10-11T08:05:29.679Z,87.77
2022-10-11T08:06:29.522Z,87.77
2022-10-11T08:07:37.590Z,87.47
2022-10-11T08:08:29.570Z,87.32
2022-10-11T08:09:32.652Z,87.02
2022-10-11T08:10:36.979Z,87.02
2022-10-11T08:11:30.196Z,86.40
2022-10-11T08:12:30.561Z,86.91
2022-10-11T08:13:37.459Z,86.51
2022-10-11T08:14:31.462Z,86.40
2022-10-11T08:15:29.405Z,85.89
2022-10-11T08:16:29.444Z,85.75
2022-10-11T08:17:29.535Z,85.75
2022-10-11T08:18:30.569Z,85.55
2022-10-11T08:19:36.632Z,85.03
2022-10-11T08:20:29.939Z,85.34
2022-10-11T08:21:29.365Z,85.24
2022-10-11T08:22:29.877Z,85.03
2022-10-11T08:23:29.257Z,85.14
2022-10-11T08:24:38.434Z,85.34
2022-10-11T08:25:29.689Z,85.34
2022-10-11T08:26:29.783Z,85.34
2022-10-11T08:27:29.406Z,85.14
2022-10-11T08:28:29.249Z,84.93
2022-10-11T08:29:35.759Z,85.03
2022-10-11T08:30:29.654Z,85.03
2022-10-11T08:31:29.201Z,84.89
2022-10-11T08:32:29.593Z,84.58
2022-10-11T08:33:34.378Z,84.17
2022-10-11T08:34:36.399Z,84.07
2022-10-11T08:35:29.653Z,84.17
2022-10-11T08:36:29.157Z,84.17
2022-10-11T08:37:29.388Z,83.46
2022-10-11T08:38:29.416Z,83.25
2022-10-11T08:39:36.778Z,83.36
2022-10-11T08:40:35.004Z,83.15
2022-10-11T08:41:30.663Z,83.15
2022-10-11T08:42:30.055Z,83.11
2022-10-11T08:43:29.954Z,83.11
2022-10-11T08:44:51.728Z,83.01
2022-10-11T08:45:37.451Z,82.91
2022-10-11T08:46:29.404Z,82.29
2022-10-11T08:47:29.178Z,82.20
2022-10-11T08:48:31.907Z,82.40
2022-10-11T08:49:28.929Z,82.60
2022-10-11T08:50:33.457Z,82.26
2022-10-11T08:51:35.294Z,81.65
2022-10-11T08:52:28.987Z,81.95
2022-10-11T08:53:29.537Z,81.34
2022-10-11T08:54:28.958Z,81.03
2022-10-11T08:55:28.910Z,80.83
2022-10-11T08:56:36.030Z,80.83
2022-10-11T08:57:29.551Z,80.52
2022-10-11T08:58:29.409Z,80.52
2022-10-11T08:59:28.900Z,80.32
2022-10-11T09:00:28.999Z,80.58
2022-10-11T09:01:35.186Z,80.69
2022-10-11T09:02:49.196Z,80.18
2022-10-11T09:03:33.070Z,79.97
2022-10-11T09:04:33.738Z,79.57
2022-10-11T09:05:28.810Z,79.25
2022-10-11T09:06:28.787Z,79.05
2022-10-11T09:07:35.091Z,78.75
2022-10-11T09:08:30.321Z,78.34
2022-10-11T09:09:29.618Z,78.41
2022-10-11T09:10:29.587Z,78.41
2022-10-11T09:11:29.407Z,78.71
2022-10-11T09:12:32.411Z,78.30
2022-10-11T09:13:36.484Z,78.61
2022-10-11T09:14:28.684Z,78.41
2022-10-11T09:15:29.035Z,78.00
2022-10-11T09:16:29.687Z,78.20
2022-10-11T09:17:28.622Z,78.27
2022-10-11T09:18:29.533Z,77.96
2022-10-11T09:19:35.011Z,77.25
2022-10-11T09:20:28.956Z,77.25
2022-10-11T09:21:28.917Z,77.25
2022-10-11T09:22:30.782Z,76.53
2022-10-11T09:23:29.091Z,76.53
2022-10-11T09:24:34.863Z,76.84
2022-10-11T09:25:28.467Z,76.73
2022-10-11T09:26:28.726Z,76.59
2022-10-11T09:27:57.364Z,76.50
2022-10-11T09:28:29.480Z,76.59
2022-10-11T09:29:29.282Z,76.59
2022-10-11T09:30:36.579Z,76.39
2022-10-11T09:31:28.536Z,76.19
2022-10-11T09:32:29.509Z,75.85
2022-10-11T09:33:28.614Z,74.83
2022-10-11T09:34:28.414Z,75.13
2022-10-11T09:35:34.990Z,75.03
2022-10-11T09:36:28.468Z,74.42
2022-10-11T09:37:28.434Z,74.21
2022-10-11T09:38:28.407Z,74.01
2022-10-11T09:39:29.280Z,73.60
2022-10-11T09:40:34.989Z,74.21
2022-10-11T09:41:28.568Z,74.21
2022-10-11T09:42:29.306Z,74.21
2022-10-11T09:43:28.928Z,74.42
2022-10-11T09:44:29.043Z,73.26
2022-10-11T09:45:28.390Z,72.96
2022-10-11T09:46:34.946Z,73.26
2022-10-11T09:47:28.567Z,72.86
2022-10-11T09:48:28.223Z,72.55
2022-10-11T09:49:28.432Z,72.65
2022-10-11T09:50:29.193Z,72.45
2022-10-11T09:51:35.604Z,72.65
2022-10-11T09:52:28.180Z,72.55
2022-10-11T09:53:29.038Z,72.62
2022-10-11T09:54:28.146Z,72.92
2022-10-11T09:55:28.347Z,72.62
2022-10-11T09:56:28.079Z,72.62
2022-10-11T09:57:34.850Z,72.62
2022-10-11T09:58:28.295Z,72.72
2022-10-11T09:59:29.080Z,71.39
2022-10-11T10:00:29.028Z,71.09
2022-10-11T10:01:28.214Z,71.19
2022-10-11T10:02:34.687Z,70.38
2022-10-11T10:03:28.083Z,70.38
2022-10-11T10:04:28.020Z,70.17
2022-10-11T10:05:29.334Z,69.46
2022-10-11T10:06:28.184Z,69.56
2022-10-11T10:07:34.401Z,69.12
2022-10-11T10:08:28.033Z,68.51
2022-10-11T10:09:28.990Z,68.51
2022-10-11T10:10:27.912Z,68.62
2022-10-11T10:11:30.666Z,68.21
2022-10-11T10:12:34.360Z,67.60
2022-10-11T10:13:28.602Z,68.21
2022-10-11T10:14:27.870Z,68.51
2022-10-11T10:15:27.936Z,68.51
2022-10-11T10:16:27.903Z,68.51
2022-10-11T10:17:35.496Z,68.31
2022-10-11T10:18:27.885Z,68.21
2022-10-11T10:19:27.815Z,68.01
2022-10-11T10:20:28.754Z,67.90
2022-10-11T10:21:28.495Z,67.39
2022-10-11T10:22:28.767Z,67.26
2022-10-11T10:23:35.234Z,66.85
2022-10-11T10:24:28.661Z,67.57
2022-10-11T10:25:27.969Z,67.97
2022-10-11T10:26:27.817Z,68.07
2022-10-11T10:27:28.156Z,67.16
2022-10-11T10:28:34.176Z,67.05
2022-10-11T10:29:27.807Z,65.63
2022-10-11T10:30:30.731Z,66.24
2022-10-11T10:31:29.294Z,64.89
2022-10-11T10:32:28.134Z,64.81
2022-10-11T10:33:34.231Z,64.81
2022-10-11T10:34:28.086Z,64.92
2022-10-11T10:35:27.915Z,63.77
2022-10-11T10:36:27.642Z,64.38
2022-10-11T10:37:27.689Z,64.38
2022-10-11T10:38:33.920Z,64.58
2022-10-11T10:39:27.488Z,64.38
2022-10-11T10:40:28.201Z,64.58
2022-10-11T10:41:28.508Z,64.18
2022-10-11T10:42:27.899Z,64.38
2022-10-11T10:43:28.775Z,63.67
2022-10-11T10:44:34.072Z,62.96
2022-10-11T10:45:28.648Z,63.06
2022-10-11T10:46:28.211Z,63.46
2022-10-11T10:47:33.330Z,63.26
2022-10-11T10:49:01.754Z,63.54
2022-10-11T10:49:53.304Z,63.13
2022-10-11T10:50:34.850Z,63.43
2022-10-11T10:51:27.425Z,62.52
2022-10-11T10:52:48.400Z,61.91
2022-10-11T10:53:27.380Z,61.91
2022-10-11T10:54:49.093Z,62.41
2022-10-11T10:55:33.753Z,62.11
2022-10-11T10:56:29.051Z,62.41
2022-10-11T10:57:27.939Z,62.62
2022-10-11T10:58:27.384Z,62.11
2022-10-11T10:59:28.005Z,62.01
2022-10-11T11:00:27.350Z,61.81
2022-10-11T11:01:34.437Z,61.68
2022-10-11T11:02:40.236Z,61.68
2022-10-11T11:03:29.722Z,61.88
2022-10-11T11:04:27.342Z,62.11
2022-10-11T11:05:27.716Z,62.32
2022-10-11T11:06:29.721Z,62.72
2022-10-11T11:07:33.696Z,62.49
2022-10-11T11:08:28.176Z,62.59
2022-10-11T11:09:27.158Z,62.59
2022-10-11T11:10:27.537Z,61.98
2022-10-11T11:11:33.604Z,62.41
2022-10-11T11:12:27.281Z,62.41
2022-10-11T11:13:33.571Z,62.41
2022-10-11T11:14:27.114Z,61.51
2022-10-11T11:15:32.661Z,61.60
2022-10-11T11:16:28.577Z,62.11
2022-10-11T11:17:27.057Z,61.60
2022-10-11T11:18:28.426Z,60.89
2022-10-11T11:19:33.346Z,60.49
2022-10-11T11:20:28.366Z,61.20
2022-10-11T11:21:27.261Z,61.51
2022-10-11T11:22:32.492Z,61.51
2022-10-11T11:23:27.876Z,61.27
2022-10-11T11:24:27.076Z,60.86
2022-10-11T11:25:33.608Z,60.53
2022-10-11T11:26:28.531Z,59.92
2022-10-11T11:27:28.328Z,60.02
2022-10-11T11:28:33.235Z,60.22
2022-10-11T11:29:27.246Z,60.22
2022-10-11T11:30:33.344Z,60.13
2022-10-11T11:31:26.942Z,60.10
2022-10-11T11:32:27.863Z,59.72
2022-10-11T11:33:26.841Z,59.72
2022-10-11T11:34:26.865Z,59.21
2022-10-11T11:35:27.856Z,59.41
2022-10-11T11:36:33.118Z,59.52
2022-10-11T11:37:33.066Z,59.62
2022-10-11T11:38:29.600Z,59.92
2022-10-11T11:39:27.300Z,59.52
2022-10-11T11:40:26.731Z,59.28
2022-10-11T11:41:27.022Z,59.28
2022-10-11T11:42:36.144Z,59.28
2022-10-11T11:43:26.700Z,59.59
2022-10-11T11:44:27.878Z,59.26
2022-10-11T11:45:29.380Z,59.16
2022-10-11T11:46:26.944Z,59.16
2022-10-11T11:47:26.752Z,58.82
2022-10-11T11:48:32.957Z,58.62
2022-10-11T11:49:26.545Z,58.09
2022-10-11T11:50:27.302Z,58.18
2022-10-11T11:51:30.425Z,57.17
2022-10-11T14:28:37.700Z,44.09
2022-10-11T14:29:37.135Z,43.71
2022-10-11T14:30:36.579Z,43.46
2022-10-11T14:31:41.329Z,42.84
2022-10-11T14:32:37.583Z,42.33
2022-10-11T14:33:36.089Z,41.71
2022-10-11T14:34:36.644Z,41.91
2022-10-11T14:35:36.117Z,41.99
2022-10-11T14:36:36.285Z,41.89
2022-10-11T14:37:36.037Z,41.49
2022-10-11T14:38:36.246Z,41.59
2022-10-11T14:39:42.351Z,41.49
2022-10-11T14:40:38.399Z,41.09
2022-10-11T14:41:36.023Z,40.10
2022-10-11T14:42:37.161Z,39.72
2022-10-11T14:43:35.972Z,40.05
2022-10-11T14:44:40.798Z,40.98
2022-10-11T14:45:42.754Z,41.81
2022-10-11T14:46:37.251Z,42.43
2022-10-11T14:47:40.530Z,43.26
2022-10-11T14:48:54.503Z,43.89
2022-10-11T14:49:37.501Z,44.60
2022-10-11T14:50:42.725Z,45.03
2022-10-11T14:51:36.187Z,45.43
2022-10-11T14:52:35.799Z,45.65
2022-10-11T14:53:40.775Z,46.16
2022-10-11T14:54:35.950Z,46.36
2022-10-11T14:55:42.672Z,46.56
2022-10-11T14:56:35.823Z,46.87
2022-10-11T14:57:35.729Z,47.39
2022-10-11T14:58:35.694Z,47.60
2022-10-11T14:59:36.979Z,47.90
2022-10-11T15:00:41.928Z,48.21
2022-10-11T15:01:36.315Z,48.41
2022-10-11T15:02:35.626Z,48.51
2022-10-11T15:03:35.704Z,48.71
2022-10-11T15:04:36.074Z,48.74
2022-10-11T15:05:42.335Z,49.14
2022-10-11T15:06:43.141Z,49.24
2022-10-11T15:07:36.730Z,49.24
2022-10-11T15:08:36.824Z,49.55
2022-10-11T15:09:35.712Z,49.14
2022-10-11T15:10:35.876Z,49.44
2022-10-11T15:11:42.993Z,49.67
2022-10-11T15:12:36.610Z,49.77
2022-10-11T15:13:36.262Z,50.28
2022-10-11T15:14:35.910Z,50.48
2022-10-11T15:15:35.574Z,49.67
2022-10-11T15:16:35.525Z,49.98
2022-10-11T15:17:41.823Z,50.08
2022-10-11T15:18:36.388Z,50.08
2022-10-11T15:19:36.484Z,50.08
2022-10-11T15:20:35.587Z,49.90
2022-10-11T15:21:35.753Z,49.80
2022-10-11T15:22:42.182Z,50.10
2022-10-11T15:23:35.713Z,50.40
2022-10-11T15:24:37.479Z,50.40
2022-10-11T15:25:35.725Z,49.92
2022-10-11T15:26:35.716Z,50.12
2022-10-11T15:27:41.783Z,50.23
2022-10-11T15:28:36.087Z,50.53